createdAt,value
2017-08-05T00:00:42.080Z,1005.67
2017-08-05T00:01:42.075Z,1005.67
2017-08-05T00:02:42.057Z,1005.69
2017-08-05T00:03:42.045Z,1005.67
2017-08-05T00:04:42.037Z,1005.68
2017-08-05T00:05:42.025Z,1005.69
2017-08-05T00:06:42.013Z,1005.65
2017-08-05T00:07:42.002Z,1005.66
2017-08-05T00:08:41.991Z,1005.67
2017-08-05T00:09:41.981Z,1005.71
2017-08-05T00:10:41.973Z,1005.69
2017-08-05T00:11:41.962Z,1005.68
2017-08-05T00:12:41.952Z,1005.65
2017-08-05T00:13:41.938Z,1005.62
2017-08-05T00:14:41.926Z,1005.6
2017-08-05T00:15:41.917Z,1005.57
2017-08-05T00:16:41.906Z,1005.49
2017-08-05T00:17:41.895Z,1005.48
2017-08-05T00:18:41.884Z,1005.45
2017-08-05T00:19:41.874Z,1005.42
2017-08-05T00:20:41.862Z,1005.44
2017-08-05T00:21:41.850Z,1005.45
2017-08-05T00:22:41.839Z,1005.49
2017-08-05T00:23:41.830Z,1005.52
2017-08-05T00:24:41.820Z,1005.54
2017-08-05T00:25:41.808Z,1005.58
2017-08-05T00:26:41.798Z,1005.64
2017-08-05T00:27:41.787Z,1005.64
2017-08-05T00:28:41.775Z,1005.65
2017-08-05T00:29:41.764Z,1005.64
2017-08-05T00:30:41.753Z,1005.66
2017-08-05T00:31:41.743Z,1005.66
2017-08-05T00:32:41.730Z,1005.65
2017-08-05T00:33:41.723Z,1005.59
2017-08-05T00:34:41.710Z,1005.57
2017-08-05T00:35:41.699Z,1005.57
2017-08-05T00:36:41.692Z,1005.53
2017-08-05T00:37:41.677Z,1005.52
2017-08-05T00:38:41.668Z,1005.54
2017-08-05T00:39:41.654Z,1005.51
2017-08-05T00:40:41.641Z,1005.49
2017-08-05T00:41:41.632Z,1005.42
2017-08-05T00:42:41.622Z,1005.45
2017-08-05T00:43:41.610Z,1005.4
2017-08-05T00:44:41.600Z,1005.37
2017-08-05T00:45:41.590Z,1005.36
2017-08-05T00:46:41.576Z,1005.32
2017-08-05T00:47:41.567Z,1005.33
2017-08-05T00:48:41.554Z,1005.35
2017-08-05T00:49:41.545Z,1005.37
2017-08-05T00:50:41.536Z,1005.38
2017-08-05T00:51:41.522Z,1005.4
2017-08-05T00:52:41.511Z,1005.37
2017-08-05T00:53:41.501Z,1005.37
2017-08-05T00:54:41.489Z,1005.42
2017-08-05T00:55:41.528Z,1005.41
2017-08-05T00:56:41.467Z,1005.4
2017-08-05T00:57:41.455Z,1005.39
2017-08-05T00:58:41.443Z,1005.43
2017-08-05T00:59:41.432Z,1005.44
2017-08-05T01:00:41.423Z,1005.46
2017-08-05T01:01:41.410Z,1005.46
2017-08-05T01:02:41.398Z,1005.47
2017-08-05T01:03:41.393Z,1005.44
2017-08-05T01:04:41.375Z,1005.46
2017-08-05T01:05:41.364Z,1005.42
2017-08-05T01:06:41.352Z,1005.41
2017-08-05T01:07:41.343Z,1005.43
2017-08-05T01:08:41.331Z,1005.42
2017-08-05T01:09:41.319Z,1005.39
2017-08-05T01:10:41.306Z,1005.41
2017-08-05T01:11:41.295Z,1005.4
2017-08-05T01:12:41.283Z,1005.42
2017-08-05T01:13:41.274Z,1005.41
2017-08-05T01:14:41.260Z,1005.43
2017-08-05T01:15:41.248Z,1005.42
2017-08-05T01:16:41.237Z,1005.41
2017-08-05T01:17:41.226Z,1005.42
2017-08-05T01:18:41.216Z,1005.42
2017-08-05T01:19:41.203Z,1005.45
2017-08-05T01:20:41.190Z,1005.43
2017-08-05T01:21:41.178Z,1005.44
2017-08-05T01:22:41.171Z,1005.46
2017-08-05T01:23:41.156Z,1005.45
2017-08-05T01:24:41.144Z,1005.45
2017-08-05T01:25:41.132Z,1005.45
2017-08-05T01:26:41.127Z,1005.47
2017-08-05T01:27:41.112Z,1005.49
2017-08-05T01:28:41.300Z,1005.48
2017-08-05T01:29:41.087Z,1005.47
2017-08-05T01:30:41.072Z,1005.4
2017-08-05T01:31:41.092Z,1005.4
2017-08-05T01:32:41.053Z,1005.36
2017-08-05T01:33:41.037Z,1005.28
2017-08-05T01:34:41.025Z,1005.24
2017-08-05T01:35:41.017Z,1005.21
2017-08-05T01:36:41.002Z,1005.24
2017-08-05T01:37:40.993Z,1005.29
2017-08-05T01:38:40.979Z,1005.31
2017-08-05T01:39:40.968Z,1005.26
2017-08-05T01:40:40.957Z,1005.24
2017-08-05T01:41:40.943Z,1005.26
2017-08-05T01:42:40.930Z,1005.31
2017-08-05T01:43:40.920Z,1005.33
2017-08-05T01:44:40.909Z,1005.32
2017-08-05T01:45:40.894Z,1005.28
2017-08-05T01:46:40.884Z,1005.25
2017-08-05T01:47:40.870Z,1005.17
2017-08-05T01:48:40.860Z,1005.15
2017-08-05T01:49:40.849Z,1005.18
2017-08-05T01:50:40.837Z,1005.19
2017-08-05T01:51:40.826Z,1005.24
2017-08-05T01:52:40.812Z,1005.34
2017-08-05T01:53:40.798Z,1005.27
2017-08-05T01:54:40.787Z,1005.32
2017-08-05T01:55:40.776Z,1005.33
2017-08-05T01:56:40.760Z,1005.35
2017-08-05T01:57:40.750Z,1005.37
2017-08-05T01:58:40.738Z,1005.39
2017-08-05T01:59:40.727Z,1005.4
2017-08-05T02:00:40.715Z,1005.44
2017-08-05T02:01:40.703Z,1005.45
2017-08-05T02:02:40.690Z,1005.46
2017-08-05T02:03:40.678Z,1005.43
2017-08-05T02:04:40.666Z,1005.44
2017-08-05T02:05:40.661Z,1005.46
2017-08-05T02:06:40.641Z,1005.47
2017-08-05T02:07:40.629Z,1005.47
2017-08-05T02:08:40.615Z,1005.47
2017-08-05T02:09:40.603Z,1005.48
2017-08-05T02:10:40.597Z,1005.53
2017-08-05T02:11:40.582Z,1005.59
2017-08-05T02:12:40.569Z,1005.65
2017-08-05T02:13:40.557Z,1005.57
2017-08-05T02:14:40.546Z,1005.59
2017-08-05T02:15:40.533Z,1005.54
2017-08-05T02:16:40.524Z,1005.5
2017-08-05T02:17:40.509Z,1005.49
2017-08-05T02:18:40.497Z,1005.49
2017-08-05T02:19:40.485Z,1005.46
2017-08-05T02:20:40.474Z,1005.46
2017-08-05T02:21:40.463Z,1005.46
2017-08-05T02:22:40.450Z,1005.42
2017-08-05T02:23:40.437Z,1005.39
2017-08-05T02:24:40.429Z,1005.4
2017-08-05T02:25:40.415Z,1005.39
2017-08-05T02:26:40.404Z,1005.41
2017-08-05T02:27:40.392Z,1005.42
2017-08-05T02:28:40.380Z,1005.44
2017-08-05T02:29:40.397Z,1005.43
2017-08-05T02:30:40.355Z,1005.42
2017-08-05T02:31:40.343Z,1005.4
2017-08-05T02:32:40.332Z,1005.42
2017-08-05T02:33:40.324Z,1005.43
2017-08-05T02:34:40.311Z,1005.43
2017-08-05T02:35:40.297Z,1005.43
2017-08-05T02:36:40.284Z,1005.45
2017-08-05T02:37:40.275Z,1005.48
2017-08-05T02:38:40.260Z,1005.46
2017-08-05T02:39:40.248Z,1005.48
2017-08-05T02:40:40.238Z,1005.5
2017-08-05T02:41:40.226Z,1005.54
2017-08-05T02:42:40.214Z,1005.57
2017-08-05T02:43:40.205Z,1005.6
2017-08-05T02:44:40.190Z,1005.56
2017-08-05T02:45:40.180Z,1005.53
2017-08-05T02:46:40.167Z,1005.54
2017-08-05T02:47:40.153Z,1005.44
2017-08-05T02:48:40.143Z,1005.46
2017-08-05T02:49:40.133Z,1005.46
2017-08-05T02:50:40.121Z,1005.44
2017-08-05T02:51:40.108Z,1005.42
2017-08-05T02:52:40.096Z,1005.45
2017-08-05T02:53:40.084Z,1005.43
2017-08-05T02:54:40.073Z,1005.44
2017-08-05T02:55:40.060Z,1005.45
2017-08-05T02:56:40.050Z,1005.49
2017-08-05T02:57:40.037Z,1005.52
2017-08-05T02:58:40.026Z,1005.57
2017-08-05T02:59:40.014Z,1005.49
2017-08-05T03:00:40.003Z,1005.48
2017-08-05T03:01:39.992Z,1005.47
2017-08-05T03:02:39.979Z,1005.48
2017-08-05T03:03:39.969Z,1005.45
2017-08-05T03:04:39.957Z,1005.42
2017-08-05T03:05:39.946Z,1005.44
2017-08-05T03:06:39.932Z,1005.42
2017-08-05T03:07:39.921Z,1005.44
2017-08-05T03:08:39.911Z,1005.43
2017-08-05T03:09:39.898Z,1005.4
2017-08-05T03:10:39.912Z,1005.4
2017-08-05T03:11:39.878Z,1005.37
2017-08-05T03:12:39.868Z,1005.38
2017-08-05T03:13:39.853Z,1005.33
2017-08-05T03:14:39.848Z,1005.35
2017-08-05T03:15:39.831Z,1005.34
2017-08-05T03:16:39.820Z,1005.31
2017-08-05T03:17:39.808Z,1005.33
2017-08-05T03:18:39.797Z,1005.31
2017-08-05T03:19:39.786Z,1005.29
2017-08-05T03:20:39.772Z,1005.27
2017-08-05T03:21:39.760Z,1005.27
2017-08-05T03:22:39.751Z,1005.26
2017-08-05T03:23:39.740Z,1005.28
2017-08-05T03:24:39.727Z,1005.28
2017-08-05T03:25:39.716Z,1005.27
2017-08-05T03:26:39.706Z,1005.28
2017-08-05T03:27:39.694Z,1005.34
2017-08-05T03:28:39.886Z,1005.35
2017-08-05T03:29:39.670Z,1005.34
2017-08-05T03:30:39.661Z,1005.32
2017-08-05T03:31:39.648Z,1005.27
2017-08-05T03:32:39.635Z,1005.3
2017-08-05T03:33:39.627Z,1005.28
2017-08-05T03:34:39.614Z,1005.27
2017-08-05T03:35:39.603Z,1005.3
2017-08-05T03:36:39.593Z,1005.27
2017-08-05T03:37:39.581Z,1005.33
2017-08-05T03:38:39.569Z,1005.36
2017-08-05T03:39:39.558Z,1005.37
2017-08-05T03:40:39.546Z,1005.38
2017-08-05T03:41:39.535Z,1005.41
2017-08-05T03:42:39.522Z,1005.39
2017-08-05T03:43:39.514Z,1005.35
2017-08-05T03:44:39.502Z,1005.3
2017-08-05T03:45:39.490Z,1005.29
2017-08-05T03:46:39.481Z,1005.28
2017-08-05T03:47:39.467Z,1005.29
2017-08-05T03:48:39.456Z,1005.34
2017-08-05T03:49:39.445Z,1005.32
2017-08-05T03:50:39.431Z,1005.34
2017-08-05T03:51:39.422Z,1005.36
2017-08-05T03:52:39.410Z,1005.36
2017-08-05T03:53:39.398Z,1005.3
2017-08-05T03:54:39.388Z,1005.33
2017-08-05T03:55:39.377Z,1005.29
2017-08-05T03:56:39.364Z,1005.29
2017-08-05T03:57:39.353Z,1005.28
2017-08-05T03:58:39.358Z,1005.29
2017-08-05T03:59:39.328Z,1005.26
2017-08-05T04:00:39.318Z,1005.24
2017-08-05T04:01:39.306Z,1005.27
2017-08-05T04:02:39.293Z,1005.25
2017-08-05T04:03:39.283Z,1005.28
2017-08-05T04:04:39.268Z,1005.25
2017-08-05T04:05:39.309Z,1005.27
2017-08-05T04:06:39.246Z,1005.24
2017-08-05T04:07:39.233Z,1005.25
2017-08-05T04:08:39.246Z,1005.3
2017-08-05T04:09:39.212Z,1005.3
2017-08-05T04:10:39.197Z,1005.32
2017-08-05T04:11:39.185Z,1005.34
2017-08-05T04:12:39.172Z,1005.36
2017-08-05T04:13:39.161Z,1005.36
2017-08-05T04:14:39.177Z,1005.37
2017-08-05T04:15:39.138Z,1005.46
2017-08-05T04:16:39.125Z,1005.41
2017-08-05T04:17:39.112Z,1005.42
2017-08-05T04:18:39.098Z,1005.44
2017-08-05T04:19:39.087Z,1005.43
2017-08-05T04:20:39.076Z,1005.48
2017-08-05T04:21:39.064Z,1005.47
2017-08-05T04:22:39.050Z,1005.52
2017-08-05T04:23:39.041Z,1005.57
2017-08-05T04:24:39.024Z,1005.55
2017-08-05T04:25:39.013Z,1005.61
2017-08-05T04:26:39.001Z,1005.62
2017-08-05T04:27:38.988Z,1005.61
2017-08-05T04:28:38.976Z,1005.63
2017-08-05T04:29:38.964Z,1005.63
2017-08-05T04:30:38.948Z,1005.57
2017-08-05T04:31:38.936Z,1005.57
2017-08-05T04:32:38.925Z,1005.54
2017-08-05T04:33:38.911Z,1005.58
2017-08-05T04:34:38.899Z,1005.51
2017-08-05T04:35:38.886Z,1005.54
2017-08-05T04:36:38.879Z,1005.53
2017-08-05T04:37:38.861Z,1005.53
2017-08-05T04:38:38.850Z,1005.56
2017-08-05T04:39:38.838Z,1005.51
2017-08-05T04:40:38.823Z,1005.43
2017-08-05T04:41:38.811Z,1005.47
2017-08-05T04:42:38.798Z,1005.44
2017-08-05T04:43:38.788Z,1005.46
2017-08-05T04:44:38.771Z,1005.5
2017-08-05T04:45:38.759Z,1005.49
2017-08-05T04:46:38.747Z,1005.52
2017-08-05T04:47:38.738Z,1005.51
2017-08-05T04:48:38.721Z,1005.52
2017-08-05T04:49:38.710Z,1005.43
2017-08-05T04:50:38.698Z,1005.44
2017-08-05T04:51:38.684Z,1005.36
2017-08-05T04:52:38.670Z,1005.36
2017-08-05T04:53:38.658Z,1005.41
2017-08-05T04:54:38.649Z,1005.39
2017-08-05T04:55:38.632Z,1005.39
2017-08-05T04:56:38.618Z,1005.38
2017-08-05T04:57:38.607Z,1005.38
2017-08-05T04:58:38.595Z,1005.33
2017-08-05T04:59:38.581Z,1005.31
2017-08-05T05:00:38.568Z,1005.28
2017-08-05T05:01:38.557Z,1005.25
2017-08-05T05:02:38.542Z,1005.26
2017-08-05T05:03:38.530Z,1005.21
2017-08-05T05:04:38.519Z,1005.17
2017-08-05T05:05:38.508Z,1005.12
2017-08-05T05:06:38.494Z,1005.14
2017-08-05T05:07:38.483Z,1005.22
2017-08-05T05:08:38.467Z,1005.23
2017-08-05T05:09:38.460Z,1005.26
2017-08-05T05:10:38.445Z,1005.32
2017-08-05T05:11:38.432Z,1005.23
2017-08-05T05:12:38.418Z,1005.21
2017-08-05T05:13:38.412Z,1005.19
2017-08-05T05:14:38.395Z,1005.19
2017-08-05T05:15:38.385Z,1005.14
2017-08-05T05:16:38.370Z,1005.14
2017-08-05T05:17:38.357Z,1005.15
2017-08-05T05:18:38.556Z,1005.13
2017-08-05T05:19:38.332Z,1005.15
2017-08-05T05:20:38.320Z,1005.22
2017-08-05T05:21:38.308Z,1005.21
2017-08-05T05:22:38.302Z,1005.21
2017-08-05T05:23:38.285Z,1005.22
2017-08-05T05:24:38.271Z,1005.23
2017-08-05T05:25:38.259Z,1005.17
2017-08-05T05:26:38.249Z,1005.15
2017-08-05T05:27:38.237Z,1005.16
2017-08-05T05:28:38.435Z,1005.14
2017-08-05T05:29:38.210Z,1005.13
2017-08-05T05:30:38.199Z,1005.15
2017-08-05T05:31:38.184Z,1005.12
2017-08-05T05:32:38.174Z,1005.18
2017-08-05T05:33:38.160Z,1005.2
2017-08-05T05:34:38.148Z,1005.23
2017-08-05T05:35:38.143Z,1005.2
2017-08-05T05:36:38.124Z,1005.23
2017-08-05T05:37:38.112Z,1005.2
2017-08-05T05:38:38.100Z,1005.23
2017-08-05T05:39:38.087Z,1005.21
2017-08-05T05:40:38.075Z,1005.22
2017-08-05T05:41:38.064Z,1005.23
2017-08-05T05:42:38.051Z,1005.24
2017-08-05T05:43:38.039Z,1005.33
2017-08-05T05:44:38.030Z,1005.36
2017-08-05T05:45:38.014Z,1005.36
2017-08-05T05:46:38.051Z,1005.34
2017-08-05T05:47:37.989Z,1005.34
2017-08-05T05:48:37.978Z,1005.31
2017-08-05T05:49:37.965Z,1005.31
2017-08-05T05:50:37.953Z,1005.4
2017-08-05T05:51:37.940Z,1005.34
2017-08-05T05:52:37.930Z,1005.32
2017-08-05T05:53:37.915Z,1005.28
2017-08-05T05:54:37.904Z,1005.23
2017-08-05T05:55:37.891Z,1005.25
2017-08-05T05:56:37.881Z,1005.24
2017-08-05T05:57:37.868Z,1005.19
2017-08-05T05:58:37.855Z,1005.13
2017-08-05T05:59:37.843Z,1005.16
2017-08-05T06:00:37.832Z,1005.19
2017-08-05T06:01:37.819Z,1005.26
2017-08-05T06:02:37.807Z,1005.27
2017-08-05T06:03:37.797Z,1005.28
2017-08-05T06:04:37.783Z,1005.24
2017-08-05T06:05:37.772Z,1005.2
2017-08-05T06:06:37.760Z,1005.2
2017-08-05T06:07:37.750Z,1005.14
2017-08-05T06:08:37.735Z,1005.09
2017-08-05T06:09:37.723Z,1005.14
2017-08-05T06:10:37.712Z,1005.14
2017-08-05T06:11:37.703Z,1005.13
2017-08-05T06:12:37.687Z,1005.1
2017-08-05T06:13:37.681Z,1005.11
2017-08-05T06:14:37.669Z,1005.1
2017-08-05T06:15:37.651Z,1005.03
2017-08-05T06:16:37.640Z,1005.03
2017-08-05T06:17:37.631Z,1005
2017-08-05T06:18:37.617Z,1005.03
2017-08-05T06:19:37.607Z,1005
2017-08-05T06:20:37.591Z,1005
2017-08-05T06:21:37.595Z,1004.99
2017-08-05T06:22:37.570Z,1004.98
2017-08-05T06:23:37.572Z,1005.01
2017-08-05T06:24:37.548Z,1005.03
2017-08-05T06:25:37.539Z,1005.07
2017-08-05T06:26:37.522Z,1005.09
2017-08-05T06:27:37.511Z,1005.09
2017-08-05T06:28:37.500Z,1005.11
2017-08-05T06:29:37.487Z,1005.09
2017-08-05T06:30:37.476Z,1005.05
2017-08-05T06:31:37.465Z,1005.01
2017-08-05T06:32:37.454Z,1004.99
2017-08-05T06:33:37.442Z,1004.98
2017-08-05T06:34:37.435Z,1005.02
2017-08-05T06:35:37.418Z,1005.03
2017-08-05T06:36:37.409Z,1005.02
2017-08-05T06:37:37.396Z,1005.05
2017-08-05T06:38:37.387Z,1005.01
2017-08-05T06:39:37.376Z,1005.04
2017-08-05T06:40:37.364Z,1005.07
2017-08-05T06:41:37.362Z,1005.04
2017-08-05T06:42:37.340Z,1005.04
2017-08-05T06:43:37.330Z,1004.99
2017-08-05T06:44:37.320Z,1004.92
2017-08-05T06:45:37.307Z,1004.92
2017-08-05T06:46:37.299Z,1004.89
2017-08-05T06:47:37.285Z,1004.94
2017-08-05T06:48:37.282Z,1005
2017-08-05T06:49:37.271Z,1005.03
2017-08-05T06:50:37.252Z,1005
2017-08-05T06:51:37.240Z,1005.06
2017-08-05T06:52:37.227Z,1005.07
2017-08-05T06:53:37.218Z,1005.14
2017-08-05T06:54:37.207Z,1005.12
2017-08-05T06:55:37.198Z,1005.16
2017-08-05T06:56:37.183Z,1005.12
2017-08-05T06:57:37.171Z,1005.11
2017-08-05T06:58:37.161Z,1005.08
2017-08-05T06:59:37.150Z,1005.08
2017-08-05T07:00:37.137Z,1005.12
2017-08-05T07:01:37.127Z,1005.16
2017-08-05T07:02:37.116Z,1005.17
2017-08-05T07:03:37.103Z,1005.24
2017-08-05T07:04:37.094Z,1005.28
2017-08-05T07:05:37.083Z,1005.27
2017-08-05T07:06:37.071Z,1005.25
2017-08-05T07:07:37.061Z,1005.21
2017-08-05T07:08:37.051Z,1005.18
2017-08-05T07:09:37.038Z,1005.2
2017-08-05T07:10:37.026Z,1005.24
2017-08-05T07:11:37.015Z,1005.19
2017-08-05T07:12:37.006Z,1005.18
2017-08-05T07:13:36.997Z,1005.17
2017-08-05T07:14:36.978Z,1005.16
2017-08-05T07:15:36.969Z,1005.09
2017-08-05T07:16:36.959Z,1005
2017-08-05T07:17:36.946Z,1004.89
2017-08-05T07:18:36.936Z,1004.85
2017-08-05T07:19:36.925Z,1004.79
2017-08-05T07:20:36.914Z,1004.83
2017-08-05T07:21:36.900Z,1004.99
2017-08-05T07:22:36.891Z,1005.08
2017-08-05T07:23:36.879Z,1005.06
2017-08-05T07:24:36.870Z,1005.05
2017-08-05T07:25:36.855Z,1005.08
2017-08-05T07:26:36.847Z,1005.13
2017-08-05T07:27:36.834Z,1005.13
2017-08-05T07:28:37.024Z,1005.1
2017-08-05T07:29:36.811Z,1005.05
2017-08-05T07:30:36.801Z,1005.03
2017-08-05T07:31:36.791Z,1005.04
2017-08-05T07:32:36.778Z,1005.05
2017-08-05T07:33:36.768Z,1005.07
2017-08-05T07:34:36.756Z,1005.11
2017-08-05T07:35:36.744Z,1005.13
2017-08-05T07:36:36.731Z,1005.2
2017-08-05T07:37:36.721Z,1005.19
2017-08-05T07:38:36.730Z,1005.18
2017-08-05T07:39:36.696Z,1005.2
2017-08-05T07:40:36.687Z,1005.13
2017-08-05T07:41:36.673Z,1005.08
2017-08-05T07:42:36.664Z,1005.02
2017-08-05T07:43:36.652Z,1005.02
2017-08-05T07:44:36.640Z,1004.99
2017-08-05T07:45:36.630Z,1004.99
2017-08-05T07:46:36.618Z,1004.86
2017-08-05T07:47:36.605Z,1004.89
2017-08-05T07:48:36.596Z,1004.84
2017-08-05T07:49:36.586Z,1004.79
2017-08-05T07:50:36.574Z,1004.84
2017-08-05T07:51:36.560Z,1004.76
2017-08-05T07:52:36.553Z,1004.76
2017-08-05T07:53:36.541Z,1004.69
2017-08-05T07:54:36.528Z,1004.66
2017-08-05T07:55:36.516Z,1004.69
2017-08-05T07:56:36.505Z,1004.7
2017-08-05T07:57:36.495Z,1004.74
2017-08-05T07:58:36.483Z,1004.75
2017-08-05T07:59:36.473Z,1004.8
2017-08-05T08:00:36.462Z,1004.87
2017-08-05T08:01:36.448Z,1004.95
2017-08-05T08:02:36.439Z,1004.96
2017-08-05T08:03:36.429Z,1004.97
2017-08-05T08:04:36.417Z,1004.95
2017-08-05T08:05:36.404Z,1004.93
2017-08-05T08:06:36.395Z,1004.93
2017-08-05T08:07:36.388Z,1004.87
2017-08-05T08:08:36.377Z,1004.92
2017-08-05T08:09:36.361Z,1004.91
2017-08-05T08:10:36.351Z,1004.96
2017-08-05T08:11:36.341Z,1004.96
2017-08-05T08:12:36.334Z,1005.01
2017-08-05T08:13:36.318Z,1005.03
2017-08-05T08:14:36.308Z,1005
2017-08-05T08:15:36.298Z,1005
2017-08-05T08:16:36.286Z,1004.96
2017-08-05T08:17:36.276Z,1005
2017-08-05T08:18:36.264Z,1004.93
2017-08-05T08:19:36.255Z,1004.91
2017-08-05T08:20:36.242Z,1004.89
2017-08-05T08:21:36.232Z,1004.88
2017-08-05T08:22:36.223Z,1004.85
2017-08-05T08:23:36.217Z,1004.84
2017-08-05T08:24:36.203Z,1004.84
2017-08-05T08:25:36.190Z,1004.89
2017-08-05T08:26:36.181Z,1004.91
2017-08-05T08:27:36.170Z,1004.91
2017-08-05T08:28:36.160Z,1004.95
2017-08-05T08:29:36.148Z,1004.95
2017-08-05T08:30:36.142Z,1004.96
2017-08-05T08:31:36.128Z,1004.95
2017-08-05T08:32:36.118Z,1005.03
2017-08-05T08:33:36.110Z,1005.03
2017-08-05T08:34:36.097Z,1005.06
2017-08-05T08:35:36.086Z,1005.03
2017-08-05T08:36:36.075Z,1005.06
2017-08-05T08:37:36.064Z,1005.08
2017-08-05T08:38:36.054Z,1005.09
2017-08-05T08:39:36.043Z,1005.05
2017-08-05T08:40:36.040Z,1005.04
2017-08-05T08:41:36.023Z,1005.05
2017-08-05T08:42:36.016Z,1005.02
2017-08-05T08:43:36.002Z,1005.04
2017-08-05T08:44:35.992Z,1005.05
2017-08-05T08:45:35.982Z,1005.02
2017-08-05T08:46:35.972Z,1004.93
2017-08-05T08:47:35.961Z,1004.89
2017-08-05T08:48:35.953Z,1004.86
2017-08-05T08:49:35.939Z,1004.9
2017-08-05T08:50:35.932Z,1004.91
2017-08-05T08:51:35.919Z,1004.99
2017-08-05T08:52:35.911Z,1005.02
2017-08-05T08:53:35.898Z,1004.98
2017-08-05T08:54:35.889Z,1004.97
2017-08-05T08:55:35.910Z,1004.93
2017-08-05T08:56:35.869Z,1004.93
2017-08-05T08:57:35.857Z,1004.93
2017-08-05T08:58:35.847Z,1004.89
2017-08-05T08:59:35.838Z,1004.88
2017-08-05T09:00:35.827Z,1004.91
2017-08-05T09:01:35.816Z,1004.94
2017-08-05T09:02:35.807Z,1004.95
2017-08-05T09:03:35.796Z,1004.93
2017-08-05T09:04:35.790Z,1004.91
2017-08-05T09:05:35.776Z,1004.9
2017-08-05T09:06:35.766Z,1004.91
2017-08-05T09:07:35.755Z,1004.96
2017-08-05T09:08:35.745Z,1004.99
2017-08-05T09:09:35.734Z,1005.02
2017-08-05T09:10:35.724Z,1005.06
2017-08-05T09:11:35.719Z,1005.1
2017-08-05T09:12:35.703Z,1005.08
2017-08-05T09:13:35.695Z,1005.03
2017-08-05T09:14:35.688Z,1005.03
2017-08-05T09:15:35.691Z,1004.96
2017-08-05T09:16:35.663Z,1004.92
2017-08-05T09:17:35.654Z,1004.86
2017-08-05T09:18:35.645Z,1004.9
2017-08-05T09:19:35.634Z,1004.89
2017-08-05T09:20:35.624Z,1004.89
2017-08-05T09:21:35.626Z,1004.91
2017-08-05T09:22:35.605Z,1004.95
2017-08-05T09:23:35.596Z,1004.97
2017-08-05T09:24:35.587Z,1005.04
2017-08-05T09:25:35.574Z,1005.03
2017-08-05T09:26:35.562Z,1005.04
2017-08-05T09:27:35.558Z,1005.05
2017-08-05T09:28:35.746Z,1005.03
2017-08-05T09:29:35.533Z,1005.01
2017-08-05T09:30:35.522Z,1005.04
2017-08-05T09:31:35.514Z,1005.05
2017-08-05T09:32:35.504Z,1005.02
2017-08-05T09:33:35.493Z,1005.06
2017-08-05T09:34:35.484Z,1005.05
2017-08-05T09:35:35.474Z,1005.09
2017-08-05T09:36:35.463Z,1005.1
2017-08-05T09:37:35.453Z,1005.13
2017-08-05T09:38:35.441Z,1005.16
2017-08-05T09:39:35.433Z,1005.09
2017-08-05T09:40:35.426Z,1005.14
2017-08-05T09:41:35.413Z,1005.14
2017-08-05T09:42:35.402Z,1005.18
2017-08-05T09:43:35.393Z,1005.18
2017-08-05T09:44:35.381Z,1005.16
2017-08-05T09:45:35.373Z,1005.18
2017-08-05T09:46:35.364Z,1005.19
2017-08-05T09:47:35.351Z,1005.21
2017-08-05T09:48:35.344Z,1005.26
2017-08-05T09:49:35.330Z,1005.3
2017-08-05T09:50:35.321Z,1005.33
2017-08-05T09:51:35.309Z,1005.35
2017-08-05T09:52:35.300Z,1005.29
2017-08-05T09:53:35.293Z,1005.31
2017-08-05T09:54:35.279Z,1005.3
2017-08-05T09:55:35.268Z,1005.31
2017-08-05T09:56:35.264Z,1005.29
2017-08-05T09:57:35.249Z,1005.27
2017-08-05T09:58:35.237Z,1005.29
2017-08-05T09:59:35.229Z,1005.29
2017-08-05T10:00:35.220Z,1005.28
2017-08-05T10:01:35.209Z,1005.31
2017-08-05T10:02:35.199Z,1005.36
2017-08-05T10:03:35.186Z,1005.38
2017-08-05T10:04:35.178Z,1005.38
2017-08-05T10:05:35.168Z,1005.33
2017-08-05T10:06:35.155Z,1005.39
2017-08-05T10:07:35.143Z,1005.37
2017-08-05T10:08:35.137Z,1005.36
2017-08-05T10:09:35.125Z,1005.38
2017-08-05T10:10:35.114Z,1005.37
2017-08-05T10:11:35.109Z,1005.37
2017-08-05T10:12:35.095Z,1005.42
2017-08-05T10:13:35.084Z,1005.4
2017-08-05T10:14:35.075Z,1005.39
2017-08-05T10:15:35.063Z,1005.36
2017-08-05T10:16:35.056Z,1005.39
2017-08-05T10:17:35.044Z,1005.39
2017-08-05T10:18:35.036Z,1005.38
2017-08-05T10:19:35.028Z,1005.39
2017-08-05T10:20:35.014Z,1005.36
2017-08-05T10:21:35.005Z,1005.39
2017-08-05T10:22:34.993Z,1005.43
2017-08-05T10:23:34.985Z,1005.44
2017-08-05T10:24:34.973Z,1005.45
2017-08-05T10:25:34.965Z,1005.43
2017-08-05T10:26:34.953Z,1005.4
2017-08-05T10:27:34.943Z,1005.42
2017-08-05T10:28:34.935Z,1005.44
2017-08-05T10:29:34.927Z,1005.47
2017-08-05T10:30:34.912Z,1005.47
2017-08-05T10:31:34.905Z,1005.52
2017-08-05T10:32:34.892Z,1005.53
2017-08-05T10:33:34.886Z,1005.51
2017-08-05T10:34:34.876Z,1005.51
2017-08-05T10:35:34.866Z,1005.52
2017-08-05T10:36:34.854Z,1005.5
2017-08-05T10:37:34.844Z,1005.55
2017-08-05T10:38:34.831Z,1005.51
2017-08-05T10:39:34.821Z,1005.5
2017-08-05T10:40:34.812Z,1005.46
2017-08-05T10:41:34.802Z,1005.44
2017-08-05T10:42:34.791Z,1005.43
2017-08-05T10:43:34.784Z,1005.44
2017-08-05T10:44:34.773Z,1005.47
2017-08-05T10:45:34.764Z,1005.49
2017-08-05T10:46:34.753Z,1005.51
2017-08-05T10:47:34.743Z,1005.43
2017-08-05T10:48:34.731Z,1005.43
2017-08-05T10:49:34.726Z,1005.44
2017-08-05T10:50:34.712Z,1005.4
2017-08-05T10:51:34.704Z,1005.39
2017-08-05T10:52:34.695Z,1005.39
2017-08-05T10:53:34.686Z,1005.37
2017-08-05T10:54:34.674Z,1005.35
2017-08-05T10:55:34.666Z,1005.45
2017-08-05T10:56:34.656Z,1005.53
2017-08-05T10:57:34.646Z,1005.52
2017-08-05T10:58:34.639Z,1005.5
2017-08-05T10:59:34.629Z,1005.47
2017-08-05T11:00:34.619Z,1005.47
2017-08-05T11:01:34.614Z,1005.46
2017-08-05T11:02:34.602Z,1005.5
2017-08-05T11:03:34.592Z,1005.51
2017-08-05T11:04:34.584Z,1005.54
2017-08-05T11:05:34.585Z,1005.59
2017-08-05T11:06:34.569Z,1005.56
2017-08-05T11:07:34.561Z,1005.58
2017-08-05T11:08:34.550Z,1005.63
2017-08-05T11:09:34.541Z,1005.6
2017-08-05T11:10:34.531Z,1005.59
2017-08-05T11:11:34.519Z,1005.61
2017-08-05T11:12:34.513Z,1005.61
2017-08-05T11:15:35.010Z,1005.52
2017-08-05T11:16:35.000Z,1005.5
2017-08-05T11:17:34.990Z,1005.5
2017-08-05T11:18:34.982Z,1005.53
2017-08-05T11:19:34.970Z,1005.53
2017-08-05T11:20:34.962Z,1005.57
2017-08-05T11:21:34.952Z,1005.56
2017-08-05T11:22:34.943Z,1005.59
2017-08-05T11:23:34.932Z,1005.57
2017-08-05T11:24:34.924Z,1005.51
2017-08-05T11:25:34.914Z,1005.52
2017-08-05T11:26:34.907Z,1005.52
2017-08-05T11:27:34.895Z,1005.56
2017-08-05T11:28:35.089Z,1005.55
2017-08-05T11:29:34.876Z,1005.57
2017-08-05T11:30:34.869Z,1005.55
2017-08-05T11:31:34.858Z,1005.54
2017-08-05T11:32:34.850Z,1005.63
2017-08-05T11:33:34.839Z,1005.63
2017-08-05T11:34:34.828Z,1005.68
2017-08-05T11:35:34.828Z,1005.68
2017-08-05T11:36:34.808Z,1005.68
2017-08-05T11:37:34.801Z,1005.64
2017-08-05T11:38:34.789Z,1005.65
2017-08-05T11:39:34.782Z,1005.62
2017-08-05T11:40:34.769Z,1005.59
2017-08-05T11:41:34.762Z,1005.64
2017-08-05T11:42:34.750Z,1005.68
2017-08-05T11:43:34.741Z,1005.72
2017-08-05T11:44:34.734Z,1005.73
2017-08-05T11:45:34.721Z,1005.69
2017-08-05T11:46:34.763Z,1005.67
2017-08-05T11:47:34.704Z,1005.67
2017-08-05T11:48:34.693Z,1005.68
2017-08-05T11:49:34.685Z,1005.67
2017-08-05T11:50:34.675Z,1005.71
2017-08-05T11:51:34.663Z,1005.71
2017-08-05T11:52:34.654Z,1005.72
2017-08-05T11:53:34.645Z,1005.68
2017-08-05T11:54:34.637Z,1005.67
2017-08-05T11:55:34.625Z,1005.65
2017-08-05T11:56:34.615Z,1005.69
2017-08-05T11:57:34.630Z,1005.64
2017-08-05T11:58:34.596Z,1005.65
2017-08-05T11:59:34.587Z,1005.62
2017-08-05T12:00:34.576Z,1005.63
2017-08-05T12:01:34.570Z,1005.62
2017-08-05T12:02:34.558Z,1005.62
2017-08-05T12:03:34.553Z,1005.66
2017-08-05T12:04:34.540Z,1005.66
2017-08-05T12:05:34.529Z,1005.69
2017-08-05T12:06:34.523Z,1005.7
2017-08-05T12:07:34.512Z,1005.72
2017-08-05T12:08:34.502Z,1005.76
2017-08-05T12:09:34.494Z,1005.77
2017-08-05T12:10:34.486Z,1005.71